Time;durP1;ratioP1;P1;durP2;ratioP2;P2;SDS_P1;SDS_P2;PMS_P1;PMS_P2;Temp;Humidity;BMP_temperature;BMP_pressure;BME280_temperature;BME280_humidity;BME280_pressure;Samples;Min_cycle;Max_cycle;Signal;HPM_P1;HPM_P2
2021/03/23 00:01:57;;;;;;;17.35;8.27;;;1.50;99.90;;;;;;5033445;28;20044;-77
2021/03/23 00:04:28;;;;;;;11.02;6.70;;;1.40;99.90;;;;;;5033857;28;20087;-77
2021/03/23 00:07:00;;;;;;;16.70;8.20;;;1.40;99.90;;;;;;5050960;28;20136;-77
2021/03/23 00:09:26;;;;;;;13.10;7.18;;;1.40;99.90;;;;;;5050377;28;20135;-77
2021/03/23 00:11:52;;;;;;;12.45;6.78;;;1.40;99.90;;;;;;5051027;28;20037;-77
2021/03/23 00:14:23;;;;;;;13.85;7.57;;;1.40;99.90;;;;;;5035422;28;20080;-77
2021/03/23 00:16:55;;;;;;;14.50;7.78;;;1.40;99.90;;;;;;5035067;28;20139;-77
2021/03/23 00:19:26;;;;;;;13.57;6.95;;;1.40;99.90;;;;;;5035161;28;20410;-77
2021/03/23 00:21:57;;;;;;;12.00;6.28;;;1.40;99.90;;;;;;5035406;28;20117;-78
2021/03/23 00:24:29;;;;;;;18.85;7.68;;;1.40;99.90;;;;;;5035322;28;20041;-77
2021/03/23 00:27:00;;;;;;;13.95;6.38;;;1.50;99.90;;;;;;5034955;28;20049;-77
2021/03/23 00:29:31;;;;;;;14.60;6.88;;;1.50;99.90;;;;;;5034799;28;20074;-77
2021/03/23 00:32:07;;;;;;;9.95;6.75;;;1.50;99.90;;;;;;5035058;28;20071;-77
2021/03/23 00:34:33;;;;;;;13.60;6.47;;;1.50;99.90;;;;;;5050790;28;20036;-77
2021/03/23 00:37:04;;;;;;;16.83;7.40;;;1.40;99.90;;;;;;5035043;28;20100;-77
2021/03/23 00:39:37;;;;;;;16.30;7.20;;;1.40;99.90;;;;;;5034591;28;20504;-77
2021/03/23 00:42:08;;;;;;;12.05;6.75;;;1.40;99.90;;;;;;5034941;28;20068;-77
2021/03/23 00:44:40;;;;;;;13.70;7.47;;;1.40;99.90;;;;;;5039277;28;20053;-77
2021/03/23 00:47:12;;;;;;;13.48;6.85;;;1.40;99.90;;;;;;5038611;28;20076;-77
2021/03/23 00:49:43;;;;;;;15.05;7.15;;;1.40;99.90;;;;;;5039060;28;20135;-77
2021/03/23 00:52:15;;;;;;;14.48;7.32;;;1.40;99.90;;;;;;5038724;28;20645;-77
2021/03/23 00:54:46;;;;;;;13.10;6.93;;;1.30;99.90;;;;;;5038729;28;20407;-77
2021/03/23 00:57:19;;;;;;;18.85;8.13;;;1.30;99.90;;;;;;5054353;28;20068;-77
2021/03/23 00:59:45;;;;;;;14.50;7.78;;;1.40;99.90;;;;;;5037648;28;20045;-77
2021/03/23 01:02:16;;;;;;;12.25;7.45;;;1.40;99.90;;;;;;5054467;28;20049;-77
2021/03/23 01:04:48;;;;;;;14.10;7.25;;;1.40;99.90;;;;;;5055410;28;20125;-77
2021/03/23 01:07:14;;;;;;;17.80;7.38;;;1.40;99.90;;;;;;5037929;28;20057;-77
2021/03/23 01:09:45;;;;;;;12.43;7.30;;;1.40;99.90;;;;;;5054354;28;20041;-77
2021/03/23 01:12:17;;;;;;;11.90;7.10;;;1.40;99.90;;;;;;5038927;28;20084;-77
2021/03/23 01:14:48;;;;;;;13.35;7.05;;;1.40;99.90;;;;;;5038029;28;20072;-77
2021/03/23 01:17:20;;;;;;;15.73;7.03;;;1.40;99.90;;;;;;5038340;28;20148;-77
2021/03/23 01:19:51;;;;;;;15.45;7.32;;;1.40;99.90;;;;;;5053914;28;20127;-77
2021/03/23 01:22:22;;;;;;;19.65;7.50;;;1.40;99.90;;;;;;5037891;28;20140;-77
2021/03/23 01:24:53;;;;;;;11.60;7.10;;;1.30;99.90;;;;;;5037699;28;20136;-77
2021/03/23 01:27:25;;;;;;;16.35;7.90;;;1.30;99.90;;;;;;5037864;28;20080;-77
2021/03/23 01:29:56;;;;;;;13.98;8.43;;;1.30;99.90;;;;;;5037547;28;20115;-77
2021/03/23 01:32:27;;;;;;;13.90;8.23;;;1.30;99.90;;;;;;5053769;28;20420;-77
2021/03/23 01:34:54;;;;;;;13.70;7.65;;;1.20;99.90;;;;;;5036947;28;20675;-77
2021/03/23 01:37:20;;;;;;;10.52;6.97;;;1.10;99.90;;;;;;5037285;28;20559;-77
2021/03/23 01:39:51;;;;;;;14.55;7.43;;;1.10;99.90;;;;;;5037152;28;20045;-77
2021/03/23 01:42:23;;;;;;;15.00;7.32;;;1.10;99.90;;;;;;5037981;28;20506;-77
2021/03/23 01:45:27;;;;;;;13.65;7.40;;;1.10;99.90;;;;;;5038215;28;20068;-77
2021/03/23 01:47:55;;;;;;;18.33;7.63;;;1.00;99.90;;;;;;5036912;28;20478;-77
2021/03/23 01:50:23;;;;;;;12.65;7.68;;;1.00;99.90;;;;;;5037130;28;20064;-77
2021/03/23 01:52:59;;;;;;;14.23;8.00;;;1.00;99.90;;;;;;5053336;28;20080;-77
2021/03/23 01:55:31;;;;;;;14.35;8.25;;;1.00;99.90;;;;;;5052892;28;20041;-77
2021/03/23 01:57:58;;;;;;;19.58;8.55;;;0.90;99.90;;;;;;5036444;28;20041;-76
2021/03/23 02:00:29;;;;;;;13.52;7.18;;;0.80;99.90;;;;;;5052621;28;20072;-77
2021/03/23 02:03:03;;;;;;;15.43;8.68;;;0.80;99.90;;;;;;5037116;28;20148;-78
2021/03/23 02:05:34;;;;;;;;;;;0.70;99.90;;;;;;5037278;28;20048;-77
2021/03/23 02:08:03;;;;;;;13.75;7.25;;;0.60;99.90;;;;;;5036185;28;19988;-77
2021/03/23 02:10:35;;;;;;;13.60;7.47;;;0.60;99.90;;;;;;5036789;28;20127;-77
2021/03/23 02:13:07;;;;;;;16.90;7.85;;;0.50;99.90;;;;;;5037212;28;20132;-77
2021/03/23 02:15:38;;;;;;;18.67;9.02;;;0.50;99.90;;;;;;5037371;28;20091;-77
2021/03/23 02:18:12;;;;;;;13.80;7.93;;;0.40;99.90;;;;;;5036658;28;20045;-77
2021/03/23 02:21:08;;;;;;;18.60;9.57;;;0.40;99.90;;;;;;5036685;28;20125;-77
2021/03/23 02:23:43;;;;;;;22.38;9.93;;;0.30;99.90;;;;;;5036860;28;20520;-77
2021/03/23 02:26:13;;;;;;;15.18;8.40;;;0.30;99.90;;;;;;5052885;28;20063;-77
2021/03/23 02:28:53;;;;;;;17.52;9.13;;;0.30;99.90;;;;;;5036268;28;20045;-77
2021/03/23 02:31:31;;;;;;;17.80;8.85;;;0.30;99.90;;;;;;5036224;28;20045;-78
2021/03/23 02:34:05;;;;;;;21.00;8.75;;;0.20;99.90;;;;;;5037226;28;20128;-77
2021/03/23 02:36:38;;;;;;;15.45;8.20;;;0.20;99.90;;;;;;5037071;28;20057;-77
2021/03/23 02:39:13;;;;;;;17.70;9.07;;;0.20;99.90;;;;;;5037395;28;20136;-77
2021/03/23 02:41:40;;;;;;;18.42;8.90;;;0.20;99.90;;;;;;5036738;28;20040;-77
2021/03/23 02:44:11;;;;;;;17.45;8.90;;;0.20;99.90;;;;;;5036853;28;20079;-77
2021/03/23 02:46:38;;;;;;;18.10;8.80;;;0.10;99.90;;;;;;5035985;28;20083;-77
2021/03/23 02:49:10;;;;;;;21.45;9.25;;;0.10;99.90;;;;;;5036280;28;20083;-77
2021/03/23 02:51:37;;;;;;;15.57;8.38;;;0.10;99.90;;;;;;5035863;28;20507;-78
2021/03/23 02:54:09;;;;;;;14.70;8.75;;;0.10;99.90;;;;;;5052457;28;20148;-77
2021/03/23 02:56:40;;;;;;;18.42;8.70;;;0.10;99.90;;;;;;5036792;28;20411;-77
2021/03/23 02:59:06;;;;;;;16.70;9.05;;;0.10;99.90;;;;;;5052526;28;20095;-77
2021/03/23 03:01:38;;;;;;;16.77;8.52;;;0.10;99.90;;;;;;5036095;28;20079;-77
2021/03/23 03:04:05;;;;;;;14.45;8.57;;;0.10;99.90;;;;;;5035820;28;20052;-77
2021/03/23 03:06:36;;;;;;;14.93;7.80;;;0.00;99.90;;;;;;5035381;28;20047;-77
2021/03/23 03:09:08;;;;;;;15.98;7.90;;;0.00;99.90;;;;;;5036678;28;20079;-77
2021/03/23 03:11:34;;;;;;;16.67;8.73;;;0.00;99.90;;;;;;5052476;28;20079;-77
2021/03/23 03:14:06;;;;;;;14.88;8.43;;;0.00;99.90;;;;;;5036448;28;20045;-77
2021/03/23 03:16:32;;;;;;;13.00;8.13;;;0.00;99.90;;;;;;5035583;28;20135;-77
2021/03/23 03:19:04;;;;;;;13.48;8.20;;;0.00;99.90;;;;;;5036317;28;20110;-77
2021/03/23 03:21:35;;;;;;;13.65;8.35;;;0.00;99.90;;;;;;5036153;28;20048;-77
2021/03/23 03:24:02;;;;;;;19.73;8.50;;;0.00;99.90;;;;;;5035634;28;20080;-77
2021/03/23 03:26:33;;;;;;;16.23;8.05;;;0.00;99.90;;;;;;5036749;28;20510;-77
2021/03/23 03:29:05;;;;;;;16.17;9.10;;;0.10;99.90;;;;;;5051849;28;20519;-77
2021/03/23 03:31:36;;;;;;;18.92;9.38;;;0.10;99.90;;;;;;5052173;28;20068;-77
2021/03/23 03:34:08;;;;;;;22.67;9.60;;;0.20;99.90;;;;;;5051729;28;20128;-77
2021/03/23 03:36:39;;;;;;;19.92;10.40;;;0.20;99.90;;;;;;5036130;28;20073;-77
2021/03/23 03:39:06;;;;;;;22.70;11.05;;;0.20;99.90;;;;;;5035090;28;20466;-77
2021/03/23 03:41:34;;;;;;;25.67;12.23;;;0.20;99.90;;;;;;5035647;28;20083;-78
2021/03/23 03:44:05;;;;;;;32.45;15.35;;;0.30;99.90;;;;;;5052170;28;20132;-77
2021/03/23 03:46:32;;;;;;;23.20;12.13;;;0.40;99.90;;;;;;5035121;28;20178;-77
2021/03/23 03:48:58;;;;;;;24.33;10.48;;;0.50;99.90;;;;;;5034824;28;20076;-77
2021/03/23 03:51:29;;;;;;;19.30;10.70;;;0.60;99.90;;;;;;5036190;28;20466;-78
2021/03/23 03:54:01;;;;;;;22.55;10.63;;;0.50;99.90;;;;;;5036358;28;20060;-76
2021/03/23 03:56:32;;;;;;;21.08;10.90;;;0.50;99.90;;;;;;5035653;28;20140;-77
2021/03/23 03:59:03;;;;;;;16.17;10.00;;;0.50;99.90;;;;;;5035904;28;20140;-77
2021/03/23 04:01:29;;;;;;;18.85;10.32;;;0.50;99.90;;;;;;5034835;28;20474;-77
2021/03/23 04:03:56;;;;;;;20.98;10.68;;;0.50;99.90;;;;;;5052163;28;20511;-77
2021/03/23 04:06:27;;;;;;;23.38;10.68;;;0.40;99.90;;;;;;5051351;28;20102;-77
2021/03/23 04:08:58;;;;;;;22.08;10.88;;;0.40;99.90;;;;;;5051199;28;20079;-78
2021/03/23 04:11:31;;;;;;;20.77;10.52;;;0.40;99.90;;;;;;5035272;28;20144;-77
2021/03/23 04:13:57;;;;;;;23.75;11.40;;;0.40;99.90;;;;;;5034726;28;20045;-77
2021/03/23 04:16:23;;;;;;;20.75;10.02;;;0.40;99.90;;;;;;5034716;28;20049;-77
2021/03/23 04:18:55;;;;;;;19.73;10.15;;;0.40;99.90;;;;;;5034869;28;20091;-78
2021/03/23 04:21:26;;;;;;;19.58;10.23;;;0.40;99.90;;;;;;5051340;28;20492;-77
2021/03/23 04:23:57;;;;;;;20.33;10.43;;;0.40;99.90;;;;;;5035000;28;20110;-77
2021/03/23 04:26:28;;;;;;;22.58;11.18;;;0.40;99.90;;;;;;5035859;28;20143;-76
2021/03/23 04:28:55;;;;;;;27.63;11.35;;;0.40;99.90;;;;;;5051310;28;20088;-77
2021/03/23 04:31:53;;;;;;;22.58;11.00;;;0.40;99.90;;;;;;5034718;28;20072;-77
2021/03/23 04:34:20;;;;;;;23.13;11.75;;;0.50;99.90;;;;;;5029188;28;20052;-77
2021/03/23 04:36:51;;;;;;;20.80;10.15;;;0.50;99.90;;;;;;5035336;28;20144;-78
2021/03/23 04:39:22;;;;;;;21.25;11.10;;;0.50;99.90;;;;;;5033774;28;20072;-76
2021/03/23 04:41:53;;;;;;;22.70;9.95;;;0.50;99.90;;;;;;5033392;28;20095;-77
2021/03/23 04:44:20;;;;;;;20.10;11.95;;;0.50;99.90;;;;;;5032299;28;20148;-76
2021/03/23 04:46:51;;;;;;;26.65;10.77;;;0.50;99.90;;;;;;5033200;28;20041;-76
2021/03/23 04:49:22;;;;;;;22.40;11.85;;;0.50;99.90;;;;;;5032981;28;20051;-76
2021/03/23 04:51:53;;;;;;;19.30;10.43;;;0.50;99.90;;;;;;5049186;28;20557;-77
2021/03/23 04:54:25;;;;;;;19.00;10.88;;;0.50;99.90;;;;;;5033065;28;20189;-76
2021/03/23 04:56:56;;;;;;;19.67;10.55;;;0.50;99.90;;;;;;5033342;28;20720;-76
2021/03/23 04:59:27;;;;;;;25.55;11.70;;;0.50;99.90;;;;;;5032657;28;20069;-76
2021/03/23 05:01:59;;;;;;;22.98;12.18;;;0.50;99.90;;;;;;5033346;28;20079;-76
2021/03/23 05:04:25;;;;;;;24.35;12.30;;;0.50;99.90;;;;;;5048890;28;20073;-76
2021/03/23 05:06:56;;;;;;;24.50;11.30;;;0.50;99.90;;;;;;5049008;28;20140;-77
2021/03/23 05:09:27;;;;;;;21.30;12.05;;;0.50;99.90;;;;;;5032353;28;20037;-76
2021/03/23 05:11:59;;;;;;;29.83;12.13;;;0.50;99.90;;;;;;5048777;28;20523;-78
2021/03/23 05:14:30;;;;;;;24.15;12.25;;;0.60;99.90;;;;;;5049094;28;20037;-76
2021/03/23 05:17:01;;;;;;;20.05;11.48;;;0.60;99.90;;;;;;5033040;28;20091;-76
2021/03/23 05:19:32;;;;;;;20.35;11.63;;;0.60;99.90;;;;;;5032558;28;20144;-76
2021/03/23 05:22:04;;;;;;;21.02;11.68;;;0.60;99.90;;;;;;5033316;28;20467;-76
2021/03/23 05:24:35;;;;;;;22.65;11.07;;;0.60;99.90;;;;;;5033036;28;20048;-76
2021/03/23 05:27:08;;;;;;;21.70;11.95;;;0.60;99.90;;;;;;5030993;28;20095;-76
2021/03/23 05:29:39;;;;;;;22.02;12.27;;;0.60;99.90;;;;;;5029849;28;20104;-76
2021/03/23 05:32:10;;;;;;;24.40;12.18;;;0.70;99.90;;;;;;5034583;28;20048;-76
2021/03/23 05:34:41;;;;;;;23.10;11.75;;;0.70;99.90;;;;;;5033960;28;20068;-77
2021/03/23 05:37:13;;;;;;;19.75;10.93;;;0.70;99.90;;;;;;5050299;28;20494;-76
2021/03/23 05:39:44;;;;;;;23.48;11.52;;;0.70;99.90;;;;;;5034127;28;20041;-77
2021/03/23 05:42:20;;;;;;;22.58;11.65;;;0.70;99.90;;;;;;5050944;28;20076;-77
2021/03/23 05:45:02;;;;;;;23.80;12.15;;;0.70;99.90;;;;;;5050650;28;20051;-76
2021/03/23 05:47:38;;;;;;;22.25;11.63;;;0.70;99.90;;;;;;5028778;28;20144;-77
2021/03/23 05:50:28;;;;;;;24.35;11.98;;;0.80;99.90;;;;;;5050406;28;20120;-76
2021/03/23 05:53:01;;;;;;;23.20;11.30;;;0.80;99.90;;;;;;5033891;28;20116;-76
2021/03/23 05:55:42;;;;;;;25.25;11.80;;;0.90;99.90;;;;;;5034462;28;20047;-76
2021/03/23 05:58:36;;;;;;;24.50;13.07;;;0.90;99.90;;;;;;5051185;28;20072;-76
2021/03/23 06:01:29;;;;;;;27.92;12.88;;;0.90;99.90;;;;;;5051715;28;20132;-75
2021/03/23 06:04:23;;;;;;;24.08;12.80;;;0.90;99.90;;;;;;5050165;28;20143;-76
2021/03/23 06:07:02;;;;;;;31.75;14.13;;;1.00;99.90;;;;;;5050607;28;20068;-76
2021/03/23 06:09:35;;;;;;;28.60;13.70;;;1.00;99.90;;;;;;5049674;28;20148;-77
2021/03/23 06:12:11;;;;;;;29.45;13.52;;;1.00;99.90;;;;;;5049993;28;20037;-76
2021/03/23 06:15:08;;;;;;;28.67;13.13;;;1.00;99.90;;;;;;5027792;28;20488;-76
2021/03/23 06:18:03;;;;;;;42.72;20.95;;;1.00;99.90;;;;;;5029511;28;20048;-76
2021/03/23 06:20:44;;;;;;;35.70;14.48;;;1.10;99.90;;;;;;5031247;28;20475;-76
2021/03/23 06:23:47;;;;;;;21.85;12.68;;;1.20;99.90;;;;;;5049143;28;20507;-76
2021/03/23 06:26:28;;;;;;;21.52;11.18;;;1.20;99.90;;;;;;5033959;28;20098;-76
2021/03/23 06:29:02;;;;;;;24.52;12.77;;;1.20;99.90;;;;;;5048292;28;20055;-76
2021/03/23 06:31:54;;;;;;;23.98;12.73;;;1.30;99.90;;;;;;5033307;28;20041;-76
2021/03/23 06:34:30;;;;;;;22.38;12.27;;;1.30;99.90;;;;;;5049064;28;20049;-76
2021/03/23 06:37:35;;;;;;;25.63;14.32;;;1.40;99.90;;;;;;5047983;28;20040;-76
2021/03/23 06:40:19;;;;;;;28.77;14.20;;;1.40;99.90;;;;;;5033182;28;20040;-76
2021/03/23 06:42:53;;;;;;;25.85;12.45;;;1.50;99.90;;;;;;5033309;28;20077;-76
2021/03/23 06:45:37;;;;;;;20.48;12.30;;;1.50;99.90;;;;;;5048840;28;20047;-76
2021/03/23 06:48:24;;;;;;;21.95;12.18;;;1.60;99.90;;;;;;5047661;28;20045;-76
2021/03/23 06:51:09;;;;;;;22.58;12.95;;;1.60;99.90;;;;;;5033083;28;20132;-76
2021/03/23 06:53:42;;;;;;;48.15;27.10;;;1.70;99.90;;;;;;5046265;28;20136;-76
2021/03/23 06:56:18;;;;;;;53.50;28.73;;;1.70;99.90;;;;;;5031660;28;20065;-76
2021/03/23 06:59:15;;;;;;;57.13;30.23;;;1.70;99.90;;;;;;5048159;28;20060;-76
2021/03/23 07:01:51;;;;;;;30.30;16.85;;;1.70;99.90;;;;;;5048704;28;20500;-76
2021/03/23 07:04:40;;;;;;;22.02;13.15;;;1.70;99.90;;;;;;5032150;28;20052;-76
2021/03/23 07:07:11;;;;;;;20.38;12.77;;;1.70;99.90;;;;;;5046298;28;20037;-76
2021/03/23 07:09:55;;;;;;;30.00;15.57;;;1.80;99.90;;;;;;5029097;28;20424;-76
2021/03/23 07:12:41;;;;;;;25.08;15.30;;;1.90;99.90;;;;;;5048420;28;20504;-76
2021/03/23 07:15:32;;;;;;;32.97;16.92;;;1.90;99.90;;;;;;5031046;28;20064;-76
2021/03/23 07:18:20;;;;;;;33.30;15.93;;;1.90;99.90;;;;;;5029209;28;20040;-76
2021/03/23 07:20:57;;;;;;;23.00;11.77;;;2.00;99.90;;;;;;5048131;28;20045;-76
2021/03/23 07:23:32;;;;;;;18.70;10.48;;;2.10;99.90;;;;;;5032642;28;20490;-76
2021/03/23 07:26:29;;;;;;;22.40;11.80;;;2.10;99.90;;;;;;5031991;28;20049;-76
2021/03/23 07:29:10;;;;;;;33.50;16.95;;;2.20;99.90;;;;;;5029747;28;20034;-76
2021/03/23 07:31:45;;;;;;;37.40;16.88;;;2.30;99.90;;;;;;5047211;28;20037;-76
2021/03/23 07:34:25;;;;;;;29.95;15.35;;;2.30;99.90;;;;;;5032187;28;20041;-76
2021/03/23 07:37:03;;;;;;;25.08;13.35;;;2.40;99.90;;;;;;5047370;28;20128;-76
2021/03/23 07:39:42;;;;;;;18.80;11.45;;;2.40;99.90;;;;;;5047648;28;20039;-77
2021/03/23 07:42:26;;;;;;;23.15;11.90;;;2.50;99.90;;;;;;5049257;28;20040;-76
2021/03/23 07:45:02;;;;;;;23.65;11.77;;;2.50;99.90;;;;;;5048163;28;20045;-79
2021/03/23 07:47:47;;;;;;;24.50;12.05;;;2.60;99.90;;;;;;5031921;28;20045;-77
2021/03/23 07:50:27;;;;;;;24.20;11.98;;;2.70;99.90;;;;;;5047219;28;20043;-78
2021/03/23 07:53:40;;;;;;;23.85;12.20;;;2.70;99.90;;;;;;5030410;28;20478;-77
2021/03/23 07:56:55;;;;;;;23.95;12.82;;;2.80;99.90;;;;;;5031444;28;20041;-77
2021/03/23 08:00:00;;;;;;;30.00;15.10;;;2.90;99.90;;;;;;5033984;28;20072;-77
2021/03/23 08:02:54;;;;;;;27.33;14.07;;;2.90;99.90;;;;;;5038657;28;20059;-78
2021/03/23 08:05:59;;;;;;;24.73;12.80;;;3.00;99.90;;;;;;5028839;28;20083;-77
2021/03/23 08:08:35;;;;;;;26.02;13.77;;;3.00;99.90;;;;;;5018163;28;20095;-80
2021/03/23 08:11:07;;;;;;;27.45;13.82;;;3.10;99.90;;;;;;5023121;28;20507;-77
2021/03/23 08:13:53;;;;;;;23.10;14.15;;;3.20;99.90;;;;;;5034069;28;20052;-78
2021/03/23 08:16:44;;;;;;;31.95;17.27;;;3.30;99.90;;;;;;5037915;28;20037;-83
2021/03/23 08:19:32;;;;;;;31.15;13.73;;;3.40;99.90;;;;;;5045738;28;20116;-83
2021/03/23 08:22:21;;;;;;;33.40;16.38;;;3.40;99.90;;;;;;5044786;28;20570;-83
2021/03/23 08:25:11;;;;;;;42.63;21.30;;;3.40;99.90;;;;;;5044594;28;20075;-83
2021/03/23 08:28:11;;;;;;;29.15;16.27;;;3.50;99.90;;;;;;5061743;28;20036;-83
2021/03/23 08:31:05;;;;;;;27.70;15.73;;;3.60;99.90;;;;;;5046335;28;20037;-83
2021/03/23 08:34:05;;;;;;;29.02;15.40;;;3.60;99.90;;;;;;5046852;28;20056;-83
2021/03/23 08:37:04;;;;;;;30.90;15.48;;;3.70;99.90;;;;;;5046797;28;20574;-83
2021/03/23 08:39:49;;;;;;;35.08;15.88;;;3.70;99.90;;;;;;5027744;28;20049;-83
2021/03/23 08:42:27;;;;;;;33.05;15.13;;;3.80;99.90;;;;;;5040892;28;20088;-83
2021/03/23 08:45:03;;;;;;;38.58;17.10;;;3.80;99.90;;;;;;5040393;28;20050;-82
2021/03/23 08:47:34;;;;;;;32.15;15.73;;;3.90;99.90;;;;;;5002110;28;20347;-83
2021/03/23 08:50:12;;;;;;;34.25;15.85;;;4.00;99.90;;;;;;5028316;28;20750;-83
2021/03/23 08:52:46;;;;;;;34.45;15.60;;;3.90;99.90;;;;;;5037671;28;20111;-82
2021/03/23 08:55:25;;;;;;;35.38;15.90;;;3.90;99.90;;;;;;5061504;28;20097;-82
2021/03/23 08:57:59;;;;;;;32.53;15.82;;;3.90;99.90;;;;;;5040800;28;20068;-82
2021/03/23 09:00:36;;;;;;;33.28;15.77;;;3.80;99.90;;;;;;5040734;28;20061;-83
2021/03/23 09:03:09;;;;;;;31.27;15.80;;;3.80;99.90;;;;;;5043416;28;20052;-83
2021/03/23 09:05:53;;;;;;;36.50;15.68;;;3.90;99.90;;;;;;5044584;28;20049;-83
2021/03/23 09:08:30;;;;;;;32.90;15.90;;;3.90;99.90;;;;;;5042557;28;20049;-82
2021/03/23 09:11:12;;;;;;;32.08;15.80;;;4.00;99.90;;;;;;5058854;28;20067;-82
2021/03/23 09:13:38;;;;;;;30.73;15.45;;;4.00;99.90;;;;;;5060593;28;20084;-82
2021/03/23 09:16:43;;;;;;;34.65;16.30;;;4.00;99.90;;;;;;5060341;28;20029;-82
2021/03/23 09:19:10;;;;;;;33.78;17.52;;;4.00;99.90;;;;;;5052173;28;20028;-82
2021/03/23 09:21:52;;;;;;;30.38;15.55;;;4.10;99.90;;;;;;5059692;28;20168;-82
2021/03/23 09:24:26;;;;;;;33.38;16.58;;;4.10;99.90;;;;;;5060171;28;20055;-84
2021/03/23 09:26:55;;;;;;;33.08;16.67;;;4.10;99.90;;;;;;5067276;28;20124;-78
2021/03/23 09:29:47;;;;;;;28.45;15.13;;;4.20;99.90;;;;;;5063909;28;20041;-83
2021/03/23 09:32:56;;;;;;;37.42;17.08;;;4.20;99.90;;;;;;5068430;28;20132;-82
2021/03/23 09:35:24;;;;;;;30.63;15.18;;;4.20;99.90;;;;;;5041011;28;20045;-82
2021/03/23 09:38:33;;;;;;;32.00;16.60;;;4.20;99.90;;;;;;5031068;28;20045;-83
2021/03/23 09:42:14;;;;;;;31.33;14.35;;;4.20;99.90;;;;;;5057032;28;20050;-84
2021/03/23 09:45:34;;;;;;;27.85;13.55;;;4.30;99.90;;;;;;5060471;28;20044;-84
2021/03/23 09:48:29;;;;;;;31.58;15.30;;;4.40;99.90;;;;;;5046956;28;20053;-84
2021/03/23 09:50:55;;;;;;;27.48;14.02;;;4.40;99.90;;;;;;5052123;28;20049;-84
2021/03/23 09:53:36;;;;;;;30.88;15.50;;;4.50;99.90;;;;;;5052830;28;20109;-84
2021/03/23 09:56:09;;;;;;;41.33;15.98;;;4.50;99.90;;;;;;5052850;28;20053;-84
2021/03/23 09:59:23;;;;;;;32.75;15.55;;;4.60;99.90;;;;;;5058389;28;20069;-83
2021/03/23 10:16:49;;;;;;;26.92;12.82;;;5.00;99.90;;;;;;5009934;28;20058;-83
2021/03/23 10:19:24;;;;;;;23.80;12.93;;;5.10;99.90;;;;;;4978075;28;20065;-83
2021/03/23 10:21:53;;;;;;;28.83;15.65;;;5.10;99.90;;;;;;4974870;28;20046;-83
2021/03/23 10:24:24;;;;;;;22.83;11.88;;;5.10;99.90;;;;;;4962434;28;20047;-83
2021/03/23 10:26:54;;;;;;;24.17;13.52;;;5.20;99.90;;;;;;4978020;28;20060;-82
2021/03/23 10:29:25;;;;;;;21.67;11.55;;;5.20;99.90;;;;;;4962619;28;20050;-82
2021/03/23 10:31:59;;;;;;;25.15;12.85;;;5.20;99.90;;;;;;4979088;28;20057;-83
2021/03/23 10:34:32;;;;;;;28.40;12.68;;;5.20;99.90;;;;;;4961401;28;20038;-82
2021/03/23 10:37:07;;;;;;;20.13;11.02;;;5.30;99.90;;;;;;4980804;28;20053;-83
2021/03/23 10:39:42;;;;;;;24.27;11.30;;;5.50;99.90;;;;;;5019905;28;20056;-82
2021/03/23 10:42:34;;;;;;;23.73;11.52;;;5.60;99.90;;;;;;5040926;28;20053;-82
2021/03/23 10:45:10;;;;;;;26.05;11.85;;;5.70;99.90;;;;;;5051927;28;20037;-83
2021/03/23 10:47:44;;;;;;;24.30;11.63;;;5.70;99.90;;;;;;5046007;28;20045;-82
2021/03/23 10:50:21;;;;;;;19.13;9.45;;;5.70;99.90;;;;;;5047351;28;20509;-83
2021/03/23 10:52:49;;;;;;;18.42;9.50;;;5.70;99.90;;;;;;5047427;28;20136;-82
2021/03/23 10:55:32;;;;;;;21.02;11.00;;;5.70;99.90;;;;;;5047118;28;20041;-84
2021/03/23 10:58:18;;;;;;;20.85;9.50;;;5.80;99.90;;;;;;5050662;28;20102;-79
2021/03/23 11:01:10;;;;;;;18.48;10.32;;;5.80;99.90;;;;;;5048391;28;20045;-83
2021/03/23 11:03:40;;;;;;;14.05;8.40;;;5.90;99.90;;;;;;5041756;28;20053;-83
2021/03/23 11:06:29;;;;;;;12.60;7.05;;;6.00;99.90;;;;;;5044187;28;20056;-83
2021/03/23 11:08:56;;;;;;;15.32;8.52;;;6.10;99.90;;;;;;5061579;28;20143;-82
2021/03/23 11:11:22;;;;;;;18.92;9.60;;;6.10;99.90;;;;;;5061445;28;20049;-82
2021/03/23 11:13:49;;;;;;;16.05;7.88;;;6.20;99.90;;;;;;5043996;28;20049;-82
2021/03/23 11:16:19;;;;;;;14.18;9.77;;;6.20;99.90;;;;;;5059351;28;20044;-81
2021/03/23 11:18:49;;;;;;;13.20;7.55;;;6.10;99.90;;;;;;5044786;28;20049;-82
2021/03/23 11:21:21;;;;;;;12.18;7.13;;;6.20;99.90;;;;;;5045171;28;20455;-82
2021/03/23 12:07:28;;;;;;;16.88;8.00;;;6.30;99.90;;;;;;5054132;28;20059;-79
2021/03/23 12:10:09;;;;;;;15.60;8.32;;;6.30;99.90;;;;;;5039842;28;20087;-82
2021/03/23 12:12:49;;;;;;;12.95;7.38;;;6.30;99.90;;;;;;5041264;28;20045;-82
2021/03/23 12:15:22;;;;;;;10.80;5.82;;;6.40;99.90;;;;;;5027656;28;20037;-83
2021/03/23 12:17:55;;;;;;;10.00;5.03;;;6.40;99.90;;;;;;5033683;28;20049;-82
2021/03/23 12:20:30;;;;;;;10.38;5.60;;;6.40;99.90;;;;;;5041411;28;20060;-83
2021/03/23 14:15:04;;;;;;;13.02;6.70;;;7.10;99.90;;;;;;5048140;28;20048;-83
2021/03/23 14:17:32;;;;;;;13.95;6.68;;;7.00;99.90;;;;;;5034895;28;20052;-83
2021/03/23 14:20:01;;;;;;;13.70;7.60;;;7.00;99.90;;;;;;5035274;28;20098;-82
2021/03/23 14:22:30;;;;;;;11.15;6.88;;;6.90;99.90;;;;;;5042361;28;20052;-80
2021/03/23 14:25:16;;;;;;;13.93;6.60;;;6.90;99.90;;;;;;5034207;28;20045;-78
2021/03/23 14:27:48;;;;;;;10.23;6.13;;;6.90;99.90;;;;;;5049566;28;20036;-80
2021/03/23 14:30:20;;;;;;;11.90;7.43;;;7.10;99.90;;;;;;5032453;28;20055;-80
2021/03/23 14:32:52;;;;;;;11.57;7.47;;;7.20;99.90;;;;;;5028736;28;20049;-80
2021/03/23 14:35:24;;;;;;;10.95;6.75;;;7.30;99.90;;;;;;5033083;28;20064;-79
2021/03/23 14:37:59;;;;;;;12.25;7.32;;;7.30;99.90;;;;;;5036488;28;20184;-82
2021/03/23 14:40:26;;;;;;;13.65;8.00;;;7.40;99.90;;;;;;5043706;28;20060;-81
2021/03/23 14:42:53;;;;;;;14.25;8.27;;;7.30;99.90;;;;;;5042987;28;20071;-82
2021/03/23 14:45:20;;;;;;;13.18;7.55;;;7.20;99.90;;;;;;5040913;28;20065;-82
2021/03/23 14:47:47;;;;;;;15.70;8.10;;;7.10;99.90;;;;;;5043513;28;20045;-84
2021/03/23 21:44:39;;;;;;;16.50;8.82;;;0.70;99.90;;;;;;5052501;28;20143;-78
2021/03/23 21:47:12;;;;;;;17.83;9.98;;;0.70;99.90;;;;;;5050915;28;20132;-77
2021/03/23 21:49:43;;;;;;;15.80;9.25;;;0.60;99.90;;;;;;5033755;28;20065;-77
2021/03/23 21:52:14;;;;;;;17.77;9.90;;;0.60;99.90;;;;;;5050808;28;20818;-78
2021/03/23 21:54:46;;;;;;;18.05;10.30;;;0.60;99.90;;;;;;5034478;28;20128;-78
2021/03/23 21:57:17;;;;;;;15.90;9.75;;;0.60;99.90;;;;;;5018628;28;20099;-77
2021/03/23 21:59:48;;;;;;;15.98;9.27;;;0.60;99.90;;;;;;5033894;28;20131;-79
2021/03/23 22:02:20;;;;;;;16.23;9.07;;;0.60;99.90;;;;;;5034248;28;20570;-78
2021/03/23 22:04:52;;;;;;;15.35;8.70;;;0.60;99.90;;;;;;5034203;28;20064;-78
2021/03/23 22:07:23;;;;;;;15.57;8.98;;;0.60;99.90;;;;;;5034067;28;20095;-78
2021/03/23 22:09:54;;;;;;;15.05;9.07;;;0.60;99.90;;;;;;5017782;28;20131;-77
2021/03/23 22:12:26;;;;;;;17.83;9.93;;;0.60;99.90;;;;;;5033187;28;20053;-78
2021/03/23 22:14:57;;;;;;;14.32;8.77;;;0.60;99.90;;;;;;5050631;28;20073;-78
2021/03/23 22:17:24;;;;;;;19.45;9.73;;;0.50;99.90;;;;;;5050183;28;20041;-78
2021/03/23 22:19:55;;;;;;;16.65;9.27;;;0.50;99.90;;;;;;5033392;28;20040;-78
2021/03/23 22:22:26;;;;;;;17.48;9.20;;;0.50;99.90;;;;;;5033500;28;20055;-77
2021/03/23 22:24:58;;;;;;;17.70;10.25;;;0.50;99.90;;;;;;5033641;28;20045;-78
2021/03/23 22:27:29;;;;;;;19.80;9.50;;;0.50;99.90;;;;;;5033747;28;20049;-78
2021/03/23 22:30:00;;;;;;;19.75;10.90;;;0.50;99.90;;;;;;5033211;28;20049;-78
2021/03/23 22:32:32;;;;;;;20.95;11.98;;;0.40;99.90;;;;;;5033743;28;20041;-77
2021/03/23 22:34:58;;;;;;;24.35;13.23;;;0.40;99.90;;;;;;5017061;28;20069;-78
2021/03/23 22:37:30;;;;;;;21.92;11.93;;;0.40;99.90;;;;;;5018154;28;20091;-78
2021/03/23 22:40:01;;;;;;;22.00;12.57;;;0.30;99.90;;;;;;5033946;28;20474;-78
2021/03/23 22:42:27;;;;;;;22.35;12.00;;;0.30;99.90;;;;;;5016997;28;20419;-77
2021/03/23 22:44:59;;;;;;;21.55;11.80;;;0.20;99.90;;;;;;5034436;28;20177;-78
2021/03/23 22:47:30;;;;;;;21.38;11.43;;;0.20;99.90;;;;;;5017713;28;20148;-79
2021/03/23 22:50:03;;;;;;;22.75;11.35;;;0.20;99.90;;;;;;5033102;28;20415;-78
2021/03/23 22:52:34;;;;;;;16.88;10.50;;;0.20;99.90;;;;;;5033205;28;20037;-78
2021/03/23 22:55:06;;;;;;;25.33;11.43;;;0.20;99.90;;;;;;5051095;28;20041;-78
2021/03/23 22:57:37;;;;;;;20.48;11.00;;;0.20;99.90;;;;;;5017851;28;20102;-78
2021/03/23 23:00:31;;;;;;;20.30;11.10;;;0.20;99.90;;;;;;5017484;28;20079;-78
2021/03/23 23:03:04;;;;;;;19.13;10.88;;;0.10;99.90;;;;;;5017782;28;20103;-78
2021/03/23 23:05:43;;;;;;;19.92;10.82;;;0.10;99.90;;;;;;5017719;28;20052;-78
2021/03/23 23:08:28;;;;;;;18.45;10.52;;;0.10;99.90;;;;;;5016944;28;20069;-78
2021/03/23 23:11:06;;;;;;;19.52;10.55;;;0.00;99.90;;;;;;5033842;28;20091;-78